Time;durP1;ratioP1;P1;durP2;ratioP2;P2;SDS_P1;SDS_P2;PMS_P1;PMS_P2;Temp;Humidity;BMP_temperature;BMP_pressure;BME280_temperature;BME280_humidity;BME280_pressure;Samples;Min_cycle;Max_cycle;Signal;HPM_P1;HPM_P2
2023/08/16 00:01:57;;;;;;;7.88;6.28;;;20.50;99.90;;;;;;5030221;28;20168;-46
2023/08/16 00:04:23;;;;;;;8.88;6.75;;;20.50;99.90;;;;;;5010980;28;20530;-46
2023/08/16 00:06:49;;;;;;;7.20;6.45;;;20.40;99.90;;;;;;5011126;28;20176;-46
2023/08/16 00:09:19;;;;;;;10.20;7.43;;;20.40;99.90;;;;;;5011161;28;20175;-47
2023/08/16 00:11:45;;;;;;;10.60;7.72;;;20.40;99.90;;;;;;5010975;28;20184;-46
2023/08/16 00:14:10;;;;;;;7.93;7.13;;;20.40;99.90;;;;;;5029471;28;20211;-46
2023/08/16 00:16:36;;;;;;;8.20;7.32;;;20.40;99.90;;;;;;5030810;28;20297;-46
2023/08/16 00:19:01;;;;;;;9.75;8.18;;;20.50;99.90;;;;;;5030834;28;20250;-47
2023/08/16 00:21:27;;;;;;;9.02;8.07;;;20.50;99.90;;;;;;5029908;28;20171;-47
2023/08/16 00:23:52;;;;;;;8.73;7.90;;;20.50;99.90;;;;;;5014218;28;20182;-46
2023/08/16 00:26:18;;;;;;;10.50;7.53;;;20.60;99.90;;;;;;5012872;28;20176;-47
2023/08/16 00:28:45;;;;;;;12.45;7.75;;;20.40;99.90;;;;;;5014474;28;20168;-46
2023/08/16 00:31:11;;;;;;;10.75;7.68;;;20.50;99.90;;;;;;5021666;28;20175;-47
2023/08/16 00:33:37;;;;;;;10.65;8.32;;;20.50;99.90;;;;;;5034154;28;20203;-47
2023/08/16 00:36:02;;;;;;;10.23;8.15;;;20.50;99.90;;;;;;5034352;28;20241;-46
2023/08/16 00:38:28;;;;;;;14.93;8.48;;;20.50;99.90;;;;;;5034485;28;20202;-46
2023/08/16 00:40:54;;;;;;;12.60;8.38;;;20.50;99.90;;;;;;5032793;28;20201;-46
2023/08/16 00:43:19;;;;;;;10.50;8.80;;;20.40;99.90;;;;;;5033985;28;20180;-47
2023/08/16 00:45:47;;;;;;;10.55;9.32;;;20.50;99.90;;;;;;5033931;28;20163;-46
2023/08/16 00:48:13;;;;;;;9.48;8.50;;;20.50;99.90;;;;;;5033928;28;20619;-46
2023/08/16 00:50:39;;;;;;;13.93;9.35;;;20.40;99.90;;;;;;5017769;28;20255;-46
2023/08/16 00:53:06;;;;;;;12.13;9.27;;;20.40;99.90;;;;;;5014003;28;20219;-46
2023/08/16 00:55:32;;;;;;;10.75;9.68;;;20.40;99.90;;;;;;5013950;28;20176;-46
2023/08/16 00:57:58;;;;;;;12.68;9.35;;;20.30;99.90;;;;;;5014383;28;20223;-45
2023/08/16 01:00:23;;;;;;;9.50;8.60;;;20.40;99.90;;;;;;5027614;28;20635;-46
2023/08/16 01:02:49;;;;;;;11.80;8.88;;;20.30;99.90;;;;;;5033530;28;20168;-46
2023/08/16 01:05:16;;;;;;;13.23;8.95;;;20.40;99.90;;;;;;5033575;28;20171;-46
2023/08/16 01:07:41;;;;;;;13.35;10.05;;;20.30;99.90;;;;;;5033536;28;20171;-47
2023/08/16 01:10:08;;;;;;;10.13;9.23;;;20.20;99.90;;;;;;5020844;28;20176;-46
2023/08/16 01:13:13;;;;;;;10.00;9.00;;;20.30;99.90;;;;;;5013754;28;20243;-46
2023/08/16 01:15:44;;;;;;;10.20;9.20;;;20.20;99.90;;;;;;5036816;28;20285;-46
2023/08/16 01:18:11;;;;;;;11.68;8.75;;;20.10;99.90;;;;;;5032188;28;20578;-46
2023/08/16 01:20:38;;;;;;;12.85;10.73;;;20.00;99.90;;;;;;5033004;28;20195;-46
2023/08/16 01:23:06;;;;;;;11.40;10.05;;;20.00;99.90;;;;;;5033264;28;20182;-48
2023/08/16 01:25:51;;;;;;;13.13;9.32;;;20.10;99.90;;;;;;5033574;28;20256;-46
2023/08/16 01:28:18;;;;;;;12.68;9.35;;;20.00;99.90;;;;;;5033266;28;20220;-47
2023/08/16 01:30:45;;;;;;;11.00;9.80;;;20.00;99.90;;;;;;5017542;28;20179;-46
2023/08/16 01:33:12;;;;;;;16.20;9.63;;;20.00;99.90;;;;;;5011925;28;20302;-47
2023/08/16 01:35:38;;;;;;;11.07;8.90;;;20.10;99.90;;;;;;5013381;28;20191;-46
2023/08/16 01:38:05;;;;;;;13.50;9.18;;;20.00;99.90;;;;;;5013339;28;20553;-46
2023/08/16 01:40:37;;;;;;;14.38;9.38;;;20.00;99.90;;;;;;5026851;28;20178;-46
2023/08/16 01:43:06;;;;;;;10.43;9.23;;;19.90;99.90;;;;;;5032901;28;20724;-46
2023/08/16 01:45:32;;;;;;;10.82;9.82;;;19.90;99.90;;;;;;5033078;28;20179;-46
2023/08/16 01:47:58;;;;;;;14.25;10.35;;;20.00;99.90;;;;;;5033284;28;20508;-47
2023/08/16 01:50:24;;;;;;;15.15;10.57;;;22.50;99.90;;;;;;5020167;28;20207;-46
2023/08/16 01:52:50;;;;;;;11.65;10.18;;;19.90;99.90;;;;;;5012806;28;20172;-46
2023/08/16 01:55:16;;;;;;;13.52;10.50;;;20.00;99.90;;;;;;5012738;28;20259;-46
2023/08/16 01:57:42;;;;;;;12.15;10.82;;;19.90;99.90;;;;;;5012763;28;20188;-46
2023/08/16 02:00:09;;;;;;;13.95;10.82;;;19.90;99.90;;;;;;5022546;28;20171;-46
2023/08/16 02:02:36;;;;;;;12.45;10.25;;;19.70;99.90;;;;;;5032389;28;20217;-46
2023/08/16 02:05:02;;;;;;;13.20;11.18;;;19.70;99.90;;;;;;5032472;28;20167;-46
2023/08/16 02:07:28;;;;;;;13.98;11.13;;;19.60;99.90;;;;;;5032874;28;20237;-46
2023/08/16 02:09:53;;;;;;;12.68;11.48;;;19.70;99.90;;;;;;5024330;28;20210;-45
2023/08/16 02:12:19;;;;;;;13.30;11.57;;;19.60;99.90;;;;;;5012448;28;20269;-47
2023/08/16 02:14:44;;;;;;;12.10;10.88;;;19.60;99.90;;;;;;5012462;28;20291;-46
2023/08/16 02:17:10;;;;;;;13.55;11.50;;;19.70;99.90;;;;;;5012485;28;20172;-46
2023/08/16 02:19:35;;;;;;;12.35;11.07;;;19.70;99.90;;;;;;5017638;28;20179;-46
2023/08/16 02:22:01;;;;;;;11.98;10.80;;;19.60;99.90;;;;;;5032418;28;20163;-46
2023/08/16 02:24:26;;;;;;;16.15;11.27;;;19.60;99.90;;;;;;5032542;28;20179;-46
2023/08/16 02:26:52;;;;;;;16.00;12.05;;;19.60;99.90;;;;;;5032060;28;20171;-46
2023/08/16 02:29:17;;;;;;;13.70;11.93;;;19.60;99.90;;;;;;5015930;28;20175;-46
2023/08/16 02:31:43;;;;;;;15.88;11.75;;;19.50;99.90;;;;;;5012278;28;20522;-46
2023/08/16 02:34:08;;;;;;;13.07;11.73;;;19.50;99.90;;;;;;5012132;28;20215;-46
2023/08/16 02:36:34;;;;;;;13.10;11.77;;;19.60;99.90;;;;;;5012223;28;20172;-46
2023/08/16 02:39:00;;;;;;;15.73;12.25;;;19.60;99.90;;;;;;5025073;28;20186;-46
2023/08/16 02:41:25;;;;;;;16.70;11.90;;;19.70;99.90;;;;;;5032192;28;20207;-46
2023/08/16 02:43:51;;;;;;;15.15;11.02;;;19.60;99.90;;;;;;5032016;28;20203;-47
2023/08/16 02:46:16;;;;;;;17.13;11.45;;;19.60;99.90;;;;;;5031750;28;20230;-46
2023/08/16 02:48:42;;;;;;;13.00;11.70;;;19.60;99.90;;;;;;5020294;28;20206;-46
2023/08/16 02:51:08;;;;;;;16.48;12.55;;;19.70;99.90;;;;;;5012225;28;20168;-46
2023/08/16 02:53:33;;;;;;;15.68;12.50;;;19.60;99.90;;;;;;5011887;28;20199;-46
2023/08/16 02:55:59;;;;;;;13.85;11.60;;;19.80;99.90;;;;;;5011863;28;20667;-46
2023/08/16 02:58:24;;;;;;;18.50;11.30;;;19.60;99.90;;;;;;5019693;28;20171;-46
2023/08/16 03:00:50;;;;;;;14.18;11.55;;;19.50;99.90;;;;;;5031499;28;20175;-46
2023/08/16 03:03:16;;;;;;;14.80;12.25;;;19.40;99.90;;;;;;5031785;28;20168;-46
2023/08/16 03:05:42;;;;;;;18.73;11.77;;;19.40;99.90;;;;;;5031452;28;20163;-46
2023/08/16 03:08:08;;;;;;;18.52;11.38;;;19.50;99.90;;;;;;5025798;28;20210;-46
2023/08/16 03:10:33;;;;;;;16.67;12.00;;;19.50;99.90;;;;;;5011979;28;20176;-46
2023/08/16 03:12:59;;;;;;;14.45;12.20;;;19.50;99.90;;;;;;5011316;28;20255;-46
2023/08/16 03:15:25;;;;;;;22.85;12.50;;;19.40;99.90;;;;;;5012139;28;20176;-46
2023/08/16 03:17:50;;;;;;;16.80;12.70;;;19.40;99.90;;;;;;5013045;28;20175;-47
2023/08/16 03:20:16;;;;;;;16.38;13.13;;;19.50;99.90;;;;;;5031203;28;20175;-46
2023/08/16 03:22:41;;;;;;;20.17;13.25;;;19.40;99.90;;;;;;5031550;28;20163;-46
2023/08/16 03:25:08;;;;;;;18.20;13.13;;;19.50;99.90;;;;;;5031274;28;20657;-46
2023/08/16 03:27:34;;;;;;;14.85;12.07;;;19.60;99.90;;;;;;5030771;28;20195;-46
2023/08/16 03:29:59;;;;;;;15.52;12.52;;;19.50;99.90;;;;;;5011444;28;20628;-47
2023/08/16 03:32:25;;;;;;;13.15;11.38;;;19.30;99.90;;;;;;5011901;28;20168;-46
2023/08/16 03:34:50;;;;;;;15.73;11.50;;;19.30;99.90;;;;;;5011405;28;20627;-47
2023/08/16 03:37:16;;;;;;;16.05;12.48;;;19.50;99.90;;;;;;5011633;28;20176;-46
2023/08/16 03:39:42;;;;;;;13.90;11.90;;;19.40;99.90;;;;;;5029147;28;20223;-46
2023/08/16 03:42:07;;;;;;;14.88;11.20;;;19.50;99.90;;;;;;5031135;28;20666;-46
2023/08/16 03:44:33;;;;;;;17.42;11.50;;;19.50;99.90;;;;;;5031099;28;20171;-46
2023/08/16 03:46:59;;;;;;;13.10;11.68;;;19.40;99.90;;;;;;5031079;28;20651;-46
2023/08/16 03:49:24;;;;;;;14.32;11.55;;;19.40;99.90;;;;;;5015825;28;20183;-46
2023/08/16 03:51:50;;;;;;;19.23;11.45;;;19.50;99.90;;;;;;5011288;28;20164;-46
2023/08/16 03:54:15;;;;;;;16.73;11.75;;;19.50;99.90;;;;;;5009973;28;20688;-45
2023/08/16 03:56:41;;;;;;;15.25;12.32;;;19.50;99.90;;;;;;5011336;28;20644;-45
2023/08/16 03:59:06;;;;;;;13.32;11.55;;;19.60;99.90;;;;;;5023674;28;20178;-45
2023/08/16 04:01:32;;;;;;;16.17;11.32;;;19.60;99.90;;;;;;5032582;28;20217;-45
2023/08/16 04:03:57;;;;;;;16.80;12.38;;;19.70;99.90;;;;;;5035260;28;20217;-45
2023/08/16 04:06:23;;;;;;;15.95;11.55;;;19.60;99.90;;;;;;5035053;28;20277;-45
2023/08/16 04:08:49;;;;;;;18.00;12.02;;;19.60;99.90;;;;;;5024243;28;20180;-45
2023/08/16 04:11:15;;;;;;;21.80;11.88;;;19.60;99.90;;;;;;5014899;28;20183;-45
2023/08/16 04:13:40;;;;;;;15.90;11.52;;;19.70;99.90;;;;;;5014467;28;20228;-44
2023/08/16 04:16:06;;;;;;;15.95;12.15;;;19.60;99.90;;;;;;5014621;28;20743;-45
2023/08/16 04:18:31;;;;;;;13.65;11.60;;;19.60;99.90;;;;;;5021944;28;20662;-45
2023/08/16 04:20:57;;;;;;;16.15;11.05;;;19.60;99.90;;;;;;5034816;28;20172;-46
2023/08/16 04:23:23;;;;;;;18.30;11.45;;;18.80;99.90;;;;;;5034740;28;20170;-45
2023/08/16 04:25:49;;;;;;;15.18;11.40;;;19.70;99.90;;;;;;5034623;28;20167;-46
2023/08/16 04:28:15;;;;;;;18.50;10.85;;;19.80;99.90;;;;;;5034087;28;20168;-45
2023/08/16 04:30:40;;;;;;;15.00;10.88;;;19.70;99.90;;;;;;5034281;28;20697;-45
2023/08/16 04:33:06;;;;;;;14.85;10.73;;;19.60;99.90;;;;;;5034233;28;20199;-45
2023/08/16 04:35:32;;;;;;;12.02;10.63;;;19.70;99.90;;;;;;5034185;28;20545;-45
2023/08/16 04:37:57;;;;;;;13.50;11.20;;;19.60;99.90;;;;;;5033784;28;20176;-45
2023/08/16 04:40:23;;;;;;;13.98;11.18;;;19.60;99.90;;;;;;5034456;28;20584;-45
2023/08/16 04:42:48;;;;;;;17.73;10.40;;;19.60;99.90;;;;;;5034041;28;20234;-45
2023/08/16 04:45:14;;;;;;;16.00;10.30;;;19.60;99.90;;;;;;5033985;28;20635;-45
2023/08/16 04:47:40;;;;;;;23.15;10.82;;;19.60;99.90;;;;;;5033743;28;20584;-45
2023/08/16 04:50:08;;;;;;;12.55;10.00;;;19.50;99.90;;;;;;5032809;28;20175;-45
2023/08/16 04:52:37;;;;;;;12.15;10.30;;;19.50;99.90;;;;;;5033932;28;20624;-45
2023/08/16 04:55:04;;;;;;;13.73;10.40;;;19.50;99.90;;;;;;5033739;28;20207;-45
2023/08/16 04:57:29;;;;;;;11.50;9.73;;;19.50;99.90;;;;;;5020878;28;20584;-46
2023/08/16 04:59:55;;;;;;;13.02;10.18;;;19.50;99.90;;;;;;5014356;28;20250;-46
2023/08/16 05:02:21;;;;;;;20.45;10.32;;;19.40;99.90;;;;;;5013817;28;20218;-46
2023/08/16 05:04:46;;;;;;;16.25;10.63;;;19.40;99.90;;;;;;5013972;28;20160;-47
2023/08/16 05:07:12;;;;;;;14.40;10.40;;;19.40;99.90;;;;;;5022334;28;20628;-46
2023/08/16 05:09:37;;;;;;;13.13;9.57;;;19.40;99.90;;;;;;5033764;28;20629;-45
2023/08/16 05:12:03;;;;;;;11.57;9.43;;;19.40;99.90;;;;;;5032816;28;20226;-46
2023/08/16 05:14:29;;;;;;;15.10;9.43;;;19.50;99.90;;;;;;5033452;28;20250;-47
2023/08/16 05:16:55;;;;;;;16.35;8.63;;;19.60;99.90;;;;;;5027451;28;20195;-46
2023/08/16 05:19:21;;;;;;;14.77;8.65;;;19.50;99.90;;;;;;5013536;28;20168;-47
2023/08/16 05:21:46;;;;;;;14.48;8.05;;;19.50;99.90;;;;;;5013657;28;20176;-47
2023/08/16 05:24:12;;;;;;;11.10;8.45;;;19.50;99.90;;;;;;5013406;28;20171;-46
2023/08/16 05:26:37;;;;;;;14.27;7.50;;;19.50;99.90;;;;;;5016732;28;20175;-46
2023/08/16 05:29:03;;;;;;;10.63;8.05;;;19.50;99.90;;;;;;5032866;28;20169;-45
2023/08/16 05:31:28;;;;;;;11.10;7.40;;;19.60;99.90;;;;;;5033120;28;20178;-47
2023/08/16 05:33:54;;;;;;;9.85;7.45;;;19.60;99.90;;;;;;5033369;28;20618;-46
2023/08/16 05:36:20;;;;;;;8.68;7.40;;;19.50;99.90;;;;;;5031808;28;20167;-48
2023/08/16 05:38:45;;;;;;;9.50;7.55;;;19.60;99.90;;;;;;5013177;28;20172;-46
2023/08/16 05:41:11;;;;;;;13.02;7.15;;;19.60;99.90;;;;;;5013132;28;20174;-46
2023/08/16 05:43:36;;;;;;;12.60;7.60;;;19.50;99.90;;;;;;5013079;28;20257;-45
2023/08/16 05:46:02;;;;;;;8.60;6.63;;;19.70;99.90;;;;;;5013044;28;20168;-45
2023/08/16 05:48:28;;;;;;;11.07;7.28;;;19.70;99.90;;;;;;5031080;28;20188;-47
2023/08/16 05:50:53;;;;;;;14.10;7.45;;;19.70;99.90;;;;;;5033153;28;20174;-46
2023/08/16 05:53:19;;;;;;;13.75;8.02;;;19.80;99.90;;;;;;5031258;28;20605;-47
2023/08/16 05:55:44;;;;;;;10.40;7.40;;;19.90;99.90;;;;;;5032470;28;20233;-49
2023/08/16 05:58:10;;;;;;;10.73;7.80;;;19.90;99.90;;;;;;5016793;28;20631;-50
2023/08/16 06:00:36;;;;;;;12.90;7.55;;;20.00;99.90;;;;;;5012805;28;20165;-49
2023/08/16 06:03:01;;;;;;;10.35;7.35;;;20.00;99.90;;;;;;5012870;28;20172;-46
2023/08/16 06:05:27;;;;;;;11.95;7.78;;;19.90;99.90;;;;;;5013135;28;20163;-47
2023/08/16 06:07:54;;;;;;;15.50;7.82;;;20.00;99.90;;;;;;5026011;28;20199;-46
2023/08/16 06:10:19;;;;;;;11.00;7.68;;;20.00;99.90;;;;;;5032416;28;20182;-45
2023/08/16 06:12:45;;;;;;;9.65;7.32;;;20.10;99.90;;;;;;5031170;28;20223;-46
2023/08/16 06:15:14;;;;;;;11.93;7.68;;;20.20;99.90;;;;;;5032223;28;20211;-46
2023/08/16 06:17:40;;;;;;;10.60;7.93;;;20.30;99.90;;;;;;5021103;28;20175;-46
2023/08/16 06:20:07;;;;;;;11.75;7.10;;;20.30;99.90;;;;;;5012571;28;20218;-47
2023/08/16 06:22:33;;;;;;;11.77;7.18;;;20.40;99.90;;;;;;5025024;28;20237;-46
2023/08/16 06:24:59;;;;;;;14.25;7.70;;;20.30;99.90;;;;;;5031781;28;20207;-45
2023/08/16 06:27:25;;;;;;;12.35;7.43;;;20.30;99.90;;;;;;5023465;28;20250;-46
2023/08/16 06:29:51;;;;;;;21.27;7.80;;;20.40;99.90;;;;;;5012372;28;20543;-45
2023/08/16 06:32:17;;;;;;;12.65;7.38;;;20.40;99.90;;;;;;5012159;28;20176;-46
2023/08/16 06:34:42;;;;;;;10.13;7.28;;;20.30;99.90;;;;;;5012151;28;20294;-46
2023/08/16 06:37:08;;;;;;;10.60;7.05;;;20.40;99.90;;;;;;5016961;28;20168;-48
2023/08/16 06:39:33;;;;;;;11.60;7.53;;;20.40;99.90;;;;;;5031888;28;20163;-47
2023/08/16 06:41:59;;;;;;;13.98;6.88;;;20.50;99.90;;;;;;5031871;28;20172;-45
2023/08/16 06:44:26;;;;;;;12.40;7.90;;;20.40;99.90;;;;;;5032189;28;20635;-48
2023/08/16 06:46:51;;;;;;;11.60;7.05;;;20.40;99.90;;;;;;5027764;28;20171;-50
2023/08/16 06:49:17;;;;;;;8.07;7.05;;;20.40;99.90;;;;;;5011836;28;20242;-49
2023/08/16 06:51:42;;;;;;;14.02;7.85;;;20.60;99.90;;;;;;5011900;28;20168;-50
2023/08/16 06:54:08;;;;;;;15.18;7.53;;;20.50;99.90;;;;;;5011770;28;20211;-48
2023/08/16 06:56:33;;;;;;;13.98;7.47;;;20.60;99.90;;;;;;5011847;28;20797;-51
2023/08/16 06:58:59;;;;;;;14.90;7.55;;;20.70;99.90;;;;;;5012067;28;20651;-49
2023/08/16 07:01:25;;;;;;;12.43;7.05;;;20.80;99.90;;;;;;5012342;28;20176;-49
2023/08/16 07:03:50;;;;;;;11.60;7.60;;;20.80;99.90;;;;;;5011595;28;20187;-46
2023/08/16 07:06:17;;;;;;;11.63;7.70;;;20.80;99.90;;;;;;5023140;28;20208;-47
2023/08/16 07:08:42;;;;;;;10.90;7.72;;;20.90;99.90;;;;;;5031550;28;20247;-47
2023/08/16 07:11:08;;;;;;;14.82;7.70;;;20.90;99.90;;;;;;5031293;28;20715;-50
2023/08/16 07:13:34;;;;;;;14.88;8.52;;;21.00;99.90;;;;;;5031187;28;20758;-51
2023/08/16 07:15:59;;;;;;;11.00;7.65;;;21.00;99.90;;;;;;5021867;28;20631;-48
2023/08/16 07:18:25;;;;;;;12.82;7.53;;;21.00;99.90;;;;;;5011941;28;20168;-47
2023/08/16 07:20:50;;;;;;;12.05;7.90;;;21.00;99.90;;;;;;5011607;28;20255;-49
2023/08/16 07:23:16;;;;;;;10.65;7.75;;;20.90;99.90;;;;;;5011286;28;20221;-50
2023/08/16 07:25:42;;;;;;;13.25;8.02;;;20.90;99.90;;;;;;5017864;28;20190;-50
2023/08/16 07:28:07;;;;;;;13.13;8.68;;;20.90;99.90;;;;;;5031278;28;20164;-49
2023/08/16 07:30:36;;;;;;;15.40;8.85;;;20.80;99.90;;;;;;5031277;28;20538;-50
2023/08/16 07:33:02;;;;;;;12.68;8.70;;;20.70;99.90;;;;;;5031005;28;20258;-50
2023/08/16 07:35:29;;;;;;;15.75;8.52;;;20.80;99.90;;;;;;5028871;28;20263;-45
2023/08/16 07:37:54;;;;;;;16.50;9.52;;;20.80;99.90;;;;;;5015848;28;20167;-47
2023/08/16 07:40:20;;;;;;;14.35;9.38;;;20.90;99.90;;;;;;5015505;28;20179;-49
2023/08/16 07:42:45;;;;;;;15.95;9.68;;;20.90;99.90;;;;;;5015450;28;20176;-48
2023/08/16 07:45:11;;;;;;;16.65;10.00;;;20.90;99.90;;;;;;5017717;28;20172;-49
2023/08/16 07:47:37;;;;;;;11.55;8.68;;;21.00;99.90;;;;;;5035297;28;20250;-51
2023/08/16 07:50:03;;;;;;;15.13;9.50;;;20.90;99.90;;;;;;5035085;28;20251;-46
2023/08/16 07:52:29;;;;;;;14.18;9.60;;;21.00;99.90;;;;;;5034879;28;20206;-49
2023/08/16 07:54:55;;;;;;;14.40;10.05;;;20.90;99.90;;;;;;5035152;28;20203;-47
2023/08/16 07:57:20;;;;;;;14.80;10.48;;;21.00;99.90;;;;;;5034187;28;20183;-49
2023/08/16 07:59:46;;;;;;;14.35;10.15;;;21.00;99.90;;;;;;5034731;28;20171;-50
2023/08/16 08:02:12;;;;;;;17.52;10.65;;;21.00;99.90;;;;;;5034262;28;20498;-51
2023/08/16 08:04:38;;;;;;;13.98;9.65;;;21.20;99.90;;;;;;5034575;28;20171;-50
2023/08/16 08:07:04;;;;;;;13.43;10.93;;;21.20;99.90;;;;;;5033849;28;20171;-51
2023/08/16 08:09:31;;;;;;;14.52;11.18;;;21.20;99.90;;;;;;5034350;28;20176;-49
2023/08/16 08:11:57;;;;;;;15.50;12.38;;;21.30;99.90;;;;;;5034815;28;20691;-50
2023/08/16 08:14:22;;;;;;;14.68;11.65;;;21.30;99.90;;;;;;5035070;28;20336;-46
2023/08/16 08:16:49;;;;;;;18.10;12.93;;;21.50;99.90;;;;;;5019679;28;20254;-46
2023/08/16 08:19:14;;;;;;;14.90;12.55;;;21.60;99.90;;;;;;5014936;28;20589;-47
2023/08/16 08:21:40;;;;;;;14.48;12.98;;;21.90;99.90;;;;;;5014690;28;20160;-50
2023/08/16 08:24:06;;;;;;;19.88;13.93;;;22.00;99.90;;;;;;5014605;28;20168;-48
2023/08/16 08:26:31;;;;;;;17.88;13.85;;;22.40;99.90;;;;;;5025582;28;20198;-50
2023/08/16 08:28:57;;;;;;;20.33;14.65;;;22.30;99.90;;;;;;5034310;28;20636;-45
2023/08/16 08:31:23;;;;;;;19.80;15.02;;;22.40;99.90;;;;;;5034572;28;20159;-50
2023/08/16 08:33:49;;;;;;;21.05;15.10;;;22.20;99.90;;;;;;5034087;28;20203;-49
2023/08/16 08:36:15;;;;;;;22.45;17.73;;;21.80;99.90;;;;;;5024901;28;20248;-50
2023/08/16 08:38:41;;;;;;;22.95;17.95;;;21.60;99.90;;;;;;5014073;28;20297;-45
2023/08/16 08:41:08;;;;;;;22.55;17.77;;;21.70;99.90;;;;;;5014462;28;20654;-45
2023/08/16 08:43:38;;;;;;;21.13;18.55;;;21.60;99.90;;;;;;5014556;28;20262;-45
2023/08/16 08:46:05;;;;;;;23.70;19.33;;;21.60;99.90;;;;;;5020369;28;20182;-46
2023/08/16 08:48:31;;;;;;;22.98;20.52;;;21.50;99.90;;;;;;5033965;28;20690;-45
2023/08/16 08:50:58;;;;;;;22.63;20.20;;;21.50;99.90;;;;;;5034048;28;20538;-45
2023/08/16 08:53:25;;;;;;;25.88;21.30;;;21.50;99.90;;;;;;5034373;28;20199;-45
2023/08/16 08:55:55;;;;;;;21.48;19.27;;;21.70;99.90;;;;;;5030917;28;20615;-45
2023/08/16 08:58:22;;;;;;;19.73;17.67;;;21.90;99.90;;;;;;5034032;28;20171;-46
2023/08/16 09:00:49;;;;;;;20.58;18.58;;;21.70;99.90;;;;;;5033853;28;20170;-46
2023/08/16 09:03:20;;;;;;;19.60;17.73;;;21.60;99.90;;;;;;5033669;28;20516;-45
2023/08/16 09:05:48;;;;;;;23.42;18.17;;;21.50;99.90;;;;;;5029100;28;20625;-45
2023/08/16 09:08:15;;;;;;;19.25;17.15;;;21.60;99.90;;;;;;5013847;28;20167;-46
2023/08/16 09:10:42;;;;;;;21.23;17.48;;;21.60;99.90;;;;;;5013798;28;20168;-45
2023/08/16 09:13:10;;;;;;;22.77;16.85;;;21.70;99.90;;;;;;5013564;28;20557;-46
2023/08/16 09:15:36;;;;;;;21.35;19.15;;;21.80;99.90;;;;;;5028779;28;20512;-45
2023/08/16 09:18:13;;;;;;;20.30;18.38;;;21.80;99.90;;;;;;5033011;28;20170;-47
2023/08/16 09:20:42;;;;;;;21.20;18.92;;;21.80;99.90;;;;;;5033286;28;20170;-46
2023/08/16 09:23:15;;;;;;;23.63;18.35;;;21.80;99.90;;;;;;5033466;28;20170;-45
2023/08/16 09:25:41;;;;;;;23.10;18.23;;;21.90;99.90;;;;;;5016635;28;20578;-45
2023/08/16 09:28:11;;;;;;;25.50;22.10;;;21.90;99.90;;;;;;5032894;28;20631;-45
2023/08/16 09:30:37;;;;;;;22.45;17.20;;;22.10;99.90;;;;;;5033238;28;20171;-45
2023/08/16 09:33:03;;;;;;;21.60;17.75;;;22.10;99.90;;;;;;5032948;28;20163;-46
2023/08/16 09:35:43;;;;;;;20.10;18.05;;;22.30;99.90;;;;;;5018607;28;20183;-45
2023/08/16 09:38:09;;;;;;;19.92;17.90;;;22.40;99.90;;;;;;5013104;28;20199;-45
2023/08/16 09:40:35;;;;;;;20.13;18.23;;;22.40;99.90;;;;;;5013497;28;20168;-46
2023/08/16 09:43:01;;;;;;;23.15;17.98;;;22.40;99.90;;;;;;5012992;28;20246;-45
2023/08/16 09:45:36;;;;;;;19.77;17.75;;;22.50;99.90;;;;;;5026947;28;20262;-45
2023/08/16 09:48:04;;;;;;;21.60;18.77;;;22.50;99.90;;;;;;5032371;28;20170;-46
2023/08/16 09:50:32;;;;;;;21.38;19.08;;;22.60;99.90;;;;;;5032393;28;20277;-46
2023/08/16 09:52:58;;;;;;;21.55;19.52;;;22.60;99.90;;;;;;5032788;28;20627;-45
2023/08/16 09:55:30;;;;;;;24.25;19.98;;;22.50;99.90;;;;;;5019120;28;20186;-46
2023/08/16 09:57:58;;;;;;;22.48;20.15;;;22.50;99.90;;;;;;5028209;28;20195;-45
2023/08/16 10:00:28;;;;;;;20.77;18.77;;;22.40;99.90;;;;;;5013552;28;20168;-45
2023/08/16 10:02:55;;;;;;;22.70;19.52;;;22.40;99.90;;;;;;5012688;28;20160;-45
2023/08/16 10:05:21;;;;;;;21.00;18.90;;;22.40;99.90;;;;;;5025338;28;20178;-47
2023/08/16 10:07:50;;;;;;;22.17;19.42;;;22.40;99.90;;;;;;5032522;28;20178;-45
2023/08/16 10:10:16;;;;;;;21.70;19.58;;;22.40;99.90;;;;;;5032520;28;20170;-45
2023/08/16 10:12:43;;;;;;;21.05;19.02;;;22.50;99.90;;;;;;5031963;28;20215;-46
2023/08/16 10:15:09;;;;;;;22.20;19.95;;;22.40;99.90;;;;;;5021056;28;20239;-45
2023/08/16 10:17:42;;;;;;;21.67;19.45;;;22.50;99.90;;;;;;5012812;28;20633;-45
2023/08/16 10:20:24;;;;;;;20.88;18.70;;;22.50;99.90;;;;;;5011264;28;20169;-45
2023/08/16 10:22:57;;;;;;;21.58;19.27;;;22.40;99.90;;;;;;5011804;28;20172;-46
2023/08/16 10:25:25;;;;;;;21.73;19.58;;;22.40;99.90;;;;;;5024778;28;20194;-45
2023/08/16 10:27:57;;;;;;;22.70;20.33;;;22.50;99.90;;;;;;5032124;28;20171;-45
2023/08/16 10:30:26;;;;;;;22.65;20.48;;;22.50;99.90;;;;;;5032258;28;20171;-45
2023/08/16 10:32:58;;;;;;;23.60;20.33;;;22.60;99.90;;;;;;5027034;28;20167;-45
2023/08/16 10:35:25;;;;;;;23.30;20.88;;;22.70;99.90;;;;;;5012267;28;20243;-48
2023/08/16 10:37:53;;;;;;;22.27;19.75;;;22.60;99.90;;;;;;5011788;28;20160;-45
2023/08/16 10:40:20;;;;;;;24.85;20.67;;;22.80;99.90;;;;;;5012022;28;20226;-45
2023/08/16 10:42:59;;;;;;;21.80;19.50;;;23.00;99.90;;;;;;5014438;28;20748;-45
2023/08/16 10:45:34;;;;;;;22.15;19.92;;;23.10;99.90;;;;;;5032001;28;20177;-46
2023/08/16 10:48:10;;;;;;;20.30;18.33;;;23.10;99.90;;;;;;5031910;28;20177;-46
2023/08/16 10:50:36;;;;;;;21.40;19.23;;;23.40;99.90;;;;;;5031841;28;20193;-44
2023/08/16 10:53:02;;;;;;;23.15;19.52;;;23.70;99.90;;;;;;5025545;28;20175;-45
2023/08/16 10:55:27;;;;;;;22.20;20.00;;;23.60;99.90;;;;;;5011955;28;20599;-45
2023/08/16 10:57:54;;;;;;;23.33;20.88;;;23.80;99.90;;;;;;5012226;28;20175;-45
2023/08/16 11:00:27;;;;;;;22.15;19.90;;;23.90;99.90;;;;;;5012133;28;20250;-45
2023/08/16 11:02:54;;;;;;;23.15;18.77;;;24.10;99.90;;;;;;5017250;28;20171;-45
2023/08/16 11:05:21;;;;;;;22.25;19.85;;;24.60;99.90;;;;;;5031819;28;20167;-45
2023/08/16 11:07:47;;;;;;;23.23;18.17;;;24.80;99.90;;;;;;5031592;28;20163;-46
2023/08/16 11:10:13;;;;;;;20.00;17.90;;;25.10;99.90;;;;;;5031345;28;20258;-45
2023/08/16 11:12:39;;;;;;;20.95;16.58;;;25.30;99.90;;;;;;5029227;28;20249;-46
2023/08/16 11:15:06;;;;;;;20.58;17.25;;;25.40;99.90;;;;;;5011538;28;20705;-46
2023/08/16 11:17:32;;;;;;;19.38;17.58;;;25.50;99.90;;;;;;5012043;28;20171;-50
2023/08/16 11:20:00;;;;;;;20.60;18.00;;;26.00;99.90;;;;;;5026980;28;20171;-46
2023/08/16 11:22:26;;;;;;;20.17;17.90;;;25.90;99.90;;;;;;5012272;28;20163;-46
2023/08/16 11:24:52;;;;;;;19.48;17.20;;;26.10;99.90;;;;;;5030507;28;20178;-46
2023/08/16 11:27:24;;;;;;;19.20;17.17;;;26.10;99.90;;;;;;5031336;28;20166;-47
2023/08/16 11:29:59;;;;;;;18.88;16.98;;;26.00;99.90;;;;;;5031407;28;20293;-46
2023/08/16 11:32:38;;;;;;;19.40;16.88;;;26.00;99.90;;;;;;5030110;28;20261;-46
2023/08/16 11:35:08;;;;;;;17.33;15.52;;;25.90;99.90;;;;;;5011465;28;20671;-45
2023/08/16 11:37:35;;;;;;;18.55;16.55;;;25.60;99.90;;;;;;5011535;28;20506;-48
2023/08/16 11:40:07;;;;;;;24.60;17.10;;;25.90;99.90;;;;;;5011563;28;20168;-46
2023/08/16 11:42:33;;;;;;;19.48;16.48;;;26.00;99.90;;;;;;5024417;28;20634;-45
2023/08/16 11:44:59;;;;;;;19.85;15.63;;;25.90;99.90;;;;;;5031164;28;20159;-46
2023/08/16 11:47:24;;;;;;;23.55;17.10;;;26.10;99.90;;;;;;5031530;28;20324;-46
2023/08/16 11:49:50;;;;;;;17.60;14.63;;;25.90;99.90;;;;;;5031059;28;20163;-45
2023/08/16 11:52:25;;;;;;;16.52;14.77;;;26.10;99.90;;;;;;5019358;28;20262;-46
2023/08/16 11:55:06;;;;;;;17.88;15.07;;;26.10;99.90;;;;;;5011263;28;20203;-46
2023/08/16 11:57:47;;;;;;;18.38;15.30;;;26.10;99.90;;;;;;5011361;28;20159;-46
2023/08/16 12:00:15;;;;;;;15.88;13.68;;;26.10;99.90;;;;;;5018907;28;20536;-46
2023/08/16 12:02:43;;;;;;;17.60;14.13;;;26.40;99.90;;;;;;5030663;28;20163;-45
2023/08/16 12:05:10;;;;;;;14.63;13.13;;;26.40;99.90;;;;;;5031088;28;20171;-46
2023/08/16 12:07:51;;;;;;;15.85;14.10;;;26.50;99.90;;;;;;5030858;28;20221;-45
2023/08/16 12:10:24;;;;;;;13.70;12.32;;;26.70;99.90;;;;;;5022752;28;20230;-45
2023/08/16 12:12:52;;;;;;;15.52;12.63;;;27.00;99.90;;;;;;5011118;28;20226;-45
2023/08/16 12:15:26;;;;;;;16.27;12.77;;;26.80;99.90;;;;;;5011370;28;20301;-47
2023/08/16 12:17:52;;;;;;;14.48;13.07;;;26.30;99.90;;;;;;5011150;28;20160;-46
2023/08/16 12:20:18;;;;;;;13.57;12.25;;;26.20;99.90;;;;;;5018935;28;20167;-49
2023/08/16 12:22:44;;;;;;;14.13;12.60;;;26.10;99.90;;;;;;5033331;28;20523;-47
2023/08/16 12:25:10;;;;;;;15.95;12.60;;;25.90;99.90;;;;;;5034341;28;20178;-47
2023/08/16 12:27:36;;;;;;;13.95;12.27;;;25.90;99.90;;;;;;5034388;28;20185;-49
2023/08/16 12:30:02;;;;;;;18.42;13.60;;;25.60;99.90;;;;;;5033005;28;20238;-46